Time;durP1;ratioP1;P1;durP2;ratioP2;P2;SDS_P1;SDS_P2;PMS_P1;PMS_P2;Temp;Humidity;BMP_temperature;BMP_pressure;BME280_temperature;BME280_humidity;BME280_pressure;Samples;Min_cycle;Max_cycle;Signal;HPM_P1;HPM_P2
2023/08/02 00:02:05;;;;;;;10.43;5.05;;;;;;;24.16;48.04;94517.44;5012114;28;20041;-89
2023/08/02 00:04:31;;;;;;;8.18;4.90;;;;;;;24.68;48.24;94594.13;5004271;28;20062;-90
2023/08/02 00:06:56;;;;;;;11.40;5.57;;;;;;;24.81;47.77;94633.31;5025991;28;20068;-89
2023/08/02 00:09:22;;;;;;;9.63;4.78;;;;;;;24.34;48.01;94549.31;5016263;28;20060;-88
2023/08/02 00:11:50;;;;;;;14.90;5.18;;;;;;;24.63;48.56;94621.59;4999777;28;20034;-88
2023/08/02 00:14:16;;;;;;;15.77;6.40;;;;;;;24.28;48.79;94569.78;5020806;28;20457;-89
2023/08/02 00:16:41;;;;;;;8.32;5.03;;;;;;;24.56;49.02;94624.25;5020907;28;20107;-90
2023/08/02 00:19:06;;;;;;;14.38;5.63;;;;;;;24.43;49.05;94612.13;5009424;28;20172;-89
2023/08/02 00:21:32;;;;;;;9.05;5.15;;;;;;;24.56;48.61;94614.16;5029945;28;20080;-88
2023/08/02 00:23:57;;;;;;;11.13;4.38;;;;;;;24.48;48.73;94617.22;5026498;28;20044;-85
2023/08/02 00:26:23;;;;;;;7.95;5.45;;;;;;;24.42;49.41;94629.53;5030402;28;20025;-85
2023/08/02 00:28:48;;;;;;;13.00;5.25;;;;;;;24.38;48.96;94609.75;5044860;28;20064;-84
2023/08/02 00:31:14;;;;;;;7.88;5.30;;;;;;;24.42;49.40;94624.09;5026239;28;20075;-84
2023/08/02 00:33:39;;;;;;;9.00;5.22;;;;;;;23.98;49.56;94559.84;5025809;28;20030;-87
2023/08/02 00:36:04;;;;;;;8.15;4.85;;;;;;;24.19;49.60;94610.72;5024309;28;20061;-89
2023/08/02 00:38:31;;;;;;;8.30;4.68;;;;;;;23.61;49.75;94567.19;5027094;28;20112;-89
2023/08/02 00:41:04;;;;;;;7.95;5.13;;;;;;;24.06;49.50;94582.34;5029508;28;20041;-89
2023/08/02 00:43:37;;;;;;;9.60;4.70;;;;;;;24.43;49.35;94621.03;5019495;28;20026;-89
2023/08/02 00:46:02;;;;;;;8.48;4.40;;;;;;;24.33;49.85;94615.53;5011290;28;20081;-88
2023/08/02 00:48:27;;;;;;;9.07;5.10;;;;;;;24.60;49.79;94633.16;5013997;28;20034;-88
2023/08/02 00:50:54;;;;;;;9.85;5.20;;;;;;;24.15;49.84;94604.50;5030802;28;20033;-87
2023/08/02 00:53:21;;;;;;;11.82;4.90;;;;;;;24.15;49.92;94604.50;5026768;28;20058;-88
2023/08/02 00:55:47;;;;;;;7.93;4.45;;;;;;;23.92;50.15;94571.38;5012795;28;20526;-89
2023/08/02 00:58:13;;;;;;;6.22;4.15;;;;;;;24.40;49.93;94632.63;5029553;28;20112;-88
2023/08/02 01:00:38;;;;;;;11.27;4.22;;;;;;;23.96;49.94;94575.69;5029901;28;20029;-88
2023/08/02 01:03:04;;;;;;;9.95;5.10;;;;;;;24.33;49.84;94616.31;5029747;28;20057;-88
2023/08/02 01:05:35;;;;;;;8.70;5.10;;;;;;;24.38;49.57;94624.09;5021278;28;20038;-87
2023/08/02 01:08:04;;;;;;;8.63;4.63;;;;;;;24.48;49.83;94628.84;5018935;28;20069;-89
2023/08/02 01:10:34;;;;;;;7.65;4.82;;;;;;;24.23;50.41;94631.31;5030076;28;20506;-89
2023/08/02 01:13:04;;;;;;;8.57;4.80;;;;;;;23.75;50.48;94570.06;5028510;28;20033;-88
2023/08/02 01:15:31;;;;;;;6.15;4.22;;;;;;;24.27;50.14;94619.72;5044001;28;20041;-89
2023/08/02 01:17:56;;;;;;;10.40;5.00;;;;;;;23.78;50.47;94550.38;5031850;28;20041;-89
2023/08/02 01:20:22;;;;;;;9.10;4.78;;;;;;;23.12;51.68;94500.53;5012037;28;20034;-88
2023/08/02 01:22:47;;;;;;;7.10;5.15;;;;;;;23.50;51.65;94552.78;5026878;28;20048;-86
2023/08/02 01:25:14;;;;;;;7.35;4.75;;;;;;;23.87;52.19;94610.44;5030118;28;20040;-88
2023/08/02 01:27:48;;;;;;;9.00;4.88;;;;;;;24.08;51.36;94615.28;5045774;28;20033;-88
2023/08/02 01:30:16;;;;;;;11.48;5.70;;;;;;;24.01;51.39;94623.31;5046834;28;20040;-88
2023/08/02 01:32:42;;;;;;;8.32;4.93;;;;;;;23.47;51.55;94552.34;5046870;28;20053;-88
2023/08/02 01:35:09;;;;;;;8.45;5.97;;;;;;;23.49;50.94;94524.94;5023404;28;20047;-83
2023/08/02 01:37:35;;;;;;;7.50;4.85;;;;;;;24.07;50.99;94621.84;5014684;28;20065;-83
2023/08/02 01:40:02;;;;;;;8.70;4.97;;;;;;;23.79;51.15;94560.06;5025753;28;20038;-83
2023/08/02 01:42:27;;;;;;;8.73;5.38;;;;;;;23.53;52.00;94560.94;5015532;28;20052;-83
2023/08/02 01:44:53;;;;;;;11.45;5.50;;;;;;;23.65;52.27;94578.88;5026913;28;20037;-84
2023/08/02 01:47:18;;;;;;;11.55;5.43;;;;;;;23.76;52.25;94585.16;5019750;28;20041;-84
2023/08/02 01:49:44;;;;;;;12.15;5.35;;;;;;;22.61;52.07;94424.59;5028717;28;20040;-84
2023/08/02 01:52:09;;;;;;;10.43;5.63;;;;;;;23.42;52.01;94549.19;5003214;28;20034;-85
2023/08/02 01:54:35;;;;;;;8.30;5.70;;;;;;;23.91;51.60;94613.16;5013836;28;20119;-84
2023/08/02 01:57:00;;;;;;;13.52;5.70;;;;;;;23.03;52.77;94533.28;5029093;28;20084;-84
2023/08/02 01:59:26;;;;;;;7.70;5.07;;;;;;;23.45;52.88;94606.06;5032200;28;20504;-84
2023/08/02 02:01:52;;;;;;;11.55;5.55;;;;;;;22.73;53.01;94478.41;5032566;28;20029;-84
2023/08/02 02:04:17;;;;;;;10.82;5.15;;;;;;;23.29;53.48;94600.06;5017345;28;20034;-84
2023/08/02 02:06:42;;;;;;;7.35;5.15;;;;;;;23.30;53.59;94598.13;5022048;28;20051;-84
2023/08/02 02:09:08;;;;;;;12.55;5.85;;;;;;;23.39;53.21;94604.03;5001435;28;20034;-84
2023/08/02 02:11:33;;;;;;;9.45;5.65;;;;;;;23.06;53.93;94569.63;5006036;28;20058;-84
2023/08/02 02:13:59;;;;;;;10.77;5.60;;;;;;;23.19;54.05;94605.34;5008430;28;20029;-84
2023/08/02 02:16:24;;;;;;;10.00;5.38;;;;;;;22.98;54.96;94600.41;5024799;28;20044;-84
2023/08/02 02:18:50;;;;;;;9.00;5.93;;;;;;;23.06;54.60;94602.06;5020720;28;20452;-85
2023/08/02 02:21:15;;;;;;;11.20;6.15;;;;;;;23.15;54.34;94602.59;5014626;28;20033;-84
2023/08/02 02:23:41;;;;;;;7.57;5.68;;;;;;;23.12;54.71;94619.53;5026493;28;20096;-84
2023/08/02 02:26:06;;;;;;;13.82;6.20;;;;;;;22.69;54.74;94567.56;5027469;28;20030;-84
2023/08/02 02:28:31;;;;;;;10.25;6.35;;;;;;;23.12;54.20;94597.91;5027203;28;20087;-84
2023/08/02 02:30:57;;;;;;;7.32;6.00;;;;;;;23.36;54.00;94629.13;5032414;28;20519;-84
2023/08/02 02:33:22;;;;;;;8.85;5.65;;;;;;;22.96;54.14;94573.72;5012662;28;20034;-84
2023/08/02 02:35:48;;;;;;;13.65;6.20;;;;;;;23.32;54.06;94639.91;5013440;28;20033;-84
2023/08/02 02:38:13;;;;;;;11.15;6.68;;;;;;;22.80;54.47;94570.44;5031044;28;20029;-84
2023/08/02 02:40:39;;;;;;;9.25;6.70;;;;;;;23.02;54.09;94604.75;5028590;28;20033;-84
2023/08/02 02:43:07;;;;;;;9.55;6.53;;;;;;;22.90;53.97;94586.00;5010006;28;20031;-84
2023/08/02 02:45:32;;;;;;;10.20;6.35;;;;;;;23.38;53.81;94640.38;5009620;28;20033;-88
2023/08/02 02:47:58;;;;;;;11.82;6.72;;;;;;;22.59;54.23;94540.38;5031907;28;20492;-88
2023/08/02 02:50:23;;;;;;;12.38;6.70;;;;;;;23.07;54.41;94634.16;5035332;28;20123;-89
2023/08/02 02:52:49;;;;;;;7.38;6.20;;;;;;;23.02;53.84;94599.34;5032966;28;20065;-89
2023/08/02 02:55:14;;;;;;;9.77;6.38;;;;;;;22.73;53.89;94553.31;5025684;28;20038;-89
2023/08/02 02:57:39;;;;;;;9.05;6.07;;;;;;;23.01;54.19;94618.63;5013081;28;20034;-89
2023/08/02 03:00:05;;;;;;;14.15;6.80;;;;;;;23.04;54.06;94629.47;5023483;28;20087;-89
2023/08/02 03:02:31;;;;;;;12.55;6.82;;;;;;;23.18;53.46;94626.19;5031062;28;20060;-88
2023/08/02 03:04:57;;;;;;;12.85;6.53;;;;;;;22.80;53.29;94548.81;5028526;28;20508;-89
2023/08/02 03:07:22;;;;;;;10.52;6.90;;;;;;;23.51;52.87;94647.13;5027397;28;20033;-89
2023/08/02 03:09:48;;;;;;;9.73;6.55;;;;;;;23.23;52.87;94582.59;5012278;28;20045;-89
2023/08/02 03:12:13;;;;;;;9.20;7.22;;;;;;;23.32;52.97;94625.59;5030554;28;20037;-89
2023/08/02 03:14:39;;;;;;;14.80;6.90;;;;;;;23.24;53.17;94608.50;5027936;28;20035;-89
2023/08/02 03:17:04;;;;;;;11.50;6.93;;;;;;;23.29;53.16;94623.63;5013831;28;20038;-90
2023/08/02 03:19:30;;;;;;;12.63;7.07;;;;;;;23.33;53.32;94630.66;5029474;28;20033;-88
2023/08/02 03:21:55;;;;;;;12.23;7.03;;;;;;;23.19;53.07;94605.34;5029671;28;20060;-89
2023/08/02 03:24:21;;;;;;;12.73;6.93;;;;;;;23.57;53.05;94659.22;5027056;28;20041;-89
2023/08/02 03:26:46;;;;;;;15.35;7.32;;;;;;;23.54;52.94;94659.16;5032546;28;20129;-89
2023/08/02 03:29:11;;;;;;;11.57;6.75;;;;;;;23.57;52.75;94661.91;5028304;28;20040;-89
2023/08/02 03:31:37;;;;;;;12.15;6.25;;;;;;;23.48;52.16;94647.88;5027148;28;20037;-89
2023/08/02 03:34:02;;;;;;;12.25;6.65;;;;;;;23.46;52.79;94647.44;5016080;28;20045;-88
2023/08/02 03:36:28;;;;;;;15.25;7.45;;;;;;;23.09;53.67;94633.81;5024912;28;20037;-89
2023/08/02 03:38:53;;;;;;;12.73;7.00;;;;;;;22.88;53.39;94587.53;5017803;28;20037;-88
2023/08/02 03:41:19;;;;;;;11.18;6.97;;;;;;;22.94;53.41;94599.59;5027944;28;20029;-89
2023/08/02 03:43:44;;;;;;;11.73;6.90;;;;;;;23.01;53.17;94595.06;5030544;28;20349;-89
2023/08/02 03:46:09;;;;;;;14.23;6.68;;;;;;;23.49;53.28;94665.69;4995589;28;20501;-88
2023/08/02 03:48:35;;;;;;;10.60;6.45;;;;;;;23.40;53.26;94675.97;5030015;28;20037;-89
2023/08/02 03:51:01;;;;;;;10.98;6.85;;;;;;;23.43;52.93;94669.78;4994703;28;20038;-89
2023/08/02 03:53:27;;;;;;;13.32;5.90;;;;;;;23.50;52.45;94664.50;5029124;28;20124;-84
2023/08/02 03:55:52;;;;;;;15.98;6.60;;;;;;;23.02;52.35;94579.63;5012257;28;20043;-84
2023/08/02 03:58:18;;;;;;;8.27;6.10;;;;;;;23.55;52.50;94660.72;5005406;28;20360;-84
2023/08/02 04:00:43;;;;;;;14.20;5.78;;;;;;;23.21;53.06;94641.69;5036099;28;20029;-84
2023/08/02 04:03:09;;;;;;;13.30;5.85;;;;;;;23.22;52.67;94648.66;5036744;28;20033;-89
2023/08/02 04:05:35;;;;;;;12.93;5.72;;;;;;;23.13;52.91;94628.44;5048987;28;20041;-88
2023/08/02 04:08:00;;;;;;;12.38;5.90;;;;;;;23.36;52.40;94646.13;5029694;28;20059;-87
2023/08/02 04:10:26;;;;;;;15.68;6.00;;;;;;;23.51;52.01;94682.31;5032327;28;20120;-88
2023/08/02 04:12:51;;;;;;;12.55;6.47;;;;;;;23.41;51.44;94648.53;5046671;28;20033;-88
2023/08/02 04:15:17;;;;;;;16.27;6.03;;;;;;;23.04;51.90;94578.09;5035474;28;20045;-88
2023/08/02 04:17:43;;;;;;;12.77;6.90;;;;;;;23.15;51.51;94580.94;5042277;28;20060;-88
2023/08/02 04:20:09;;;;;;;8.57;5.88;;;;;;;23.65;50.87;94646.53;5031846;28;20044;-87
2023/08/02 04:22:34;;;;;;;14.15;6.18;;;;;;;23.87;50.96;94680.03;5011708;28;20054;-89
2023/08/02 04:25:00;;;;;;;9.70;5.15;;;;;;;23.76;51.53;94664.44;5028417;28;20057;-87
2023/08/02 04:27:25;;;;;;;12.95;6.00;;;;;;;23.73;51.13;94638.09;5041498;28;20048;-88
2023/08/02 04:29:50;;;;;;;12.77;6.45;;;;;;;23.85;51.63;94670.38;5030430;28;20049;-88
2023/08/02 04:32:16;;;;;;;11.88;6.07;;;;;;;23.85;51.30;94645.22;5048274;28;20041;-89
2023/08/02 04:34:41;;;;;;;13.70;6.55;;;;;;;23.51;50.98;94578.69;5046038;28;20034;-88
2023/08/02 04:37:07;;;;;;;14.63;6.88;;;;;;;23.96;51.12;94658.84;5048704;28;20393;-89
2023/08/02 04:39:32;;;;;;;11.32;5.82;;;;;;;23.69;50.85;94599.41;5048968;28;20064;-88
2023/08/02 04:42:00;;;;;;;12.38;6.43;;;;;;;24.01;50.67;94634.94;5039266;28;20045;-88
2023/08/02 04:44:26;;;;;;;13.80;6.45;;;;;;;23.86;51.24;94646.78;5031093;28;20034;-88
2023/08/02 04:46:51;;;;;;;11.00;7.13;;;;;;;24.00;50.80;94652.34;5038648;28;20086;-88
2023/08/02 04:49:17;;;;;;;12.35;7.30;;;;;;;24.12;50.64;94654.00;5047245;28;20041;-88
2023/08/02 04:51:42;;;;;;;17.02;7.25;;;;;;;24.36;50.25;94669.75;5022663;28;20101;-88
2023/08/02 04:54:08;;;;;;;13.45;7.95;;;;;;;24.37;50.24;94657.75;5027137;28;20057;-89
2023/08/02 04:56:33;;;;;;;12.52;8.98;;;;;;;24.06;50.09;94612.16;5026717;28;20040;-88
2023/08/02 04:58:59;;;;;;;14.32;9.30;;;;;;;24.41;49.93;94660.50;5036942;28;20029;-87
2023/08/02 05:01:24;;;;;;;18.67;11.60;;;;;;;24.55;49.96;94687.75;5029023;28;20046;-87
2023/08/02 05:03:50;;;;;;;14.73;10.50;;;;;;;24.54;50.23;94683.47;5025421;28;20038;-89
2023/08/02 05:06:15;;;;;;;16.00;9.50;;;;;;;24.59;49.84;94678.47;5011545;28;20136;-90
2023/08/02 05:08:40;;;;;;;19.15;10.40;;;;;;;24.51;49.35;94663.31;5017042;28;20030;-89
2023/08/02 05:11:07;;;;;;;19.50;10.38;;;;;;;24.65;49.25;94692.47;5022083;28;20125;-89
2023/08/02 05:13:33;;;;;;;19.65;9.48;;;;;;;24.63;49.49;94673.09;4997835;28;20041;-83
2023/08/02 05:15:59;;;;;;;14.48;9.05;;;;;;;24.49;49.59;94633.06;5005099;28;20165;-84
2023/08/02 05:18:24;;;;;;;15.05;10.00;;;;;;;24.55;49.88;94650.56;5013709;28;20065;-85
2023/08/02 05:20:50;;;;;;;21.00;10.43;;;;;;;24.73;49.60;94664.25;5030889;28;20040;-83
2023/08/02 05:23:16;;;;;;;15.48;10.90;;;;;;;24.59;49.24;94637.81;5021453;28;20401;-84
2023/08/02 05:25:41;;;;;;;14.55;9.27;;;;;;;24.83;48.92;94670.91;5007697;28;20085;-83
2023/08/02 05:28:07;;;;;;;14.38;9.35;;;;;;;24.95;48.63;94701.25;5014362;28;20073;-83
2023/08/02 05:30:34;;;;;;;15.50;9.13;;;;;;;25.04;48.41;94709.06;5017954;28;20045;-83
2023/08/02 05:33:00;;;;;;;16.55;8.85;;;;;;;24.88;48.57;94681.41;5018231;28;20084;-83
2023/08/02 05:35:25;;;;;;;18.35;9.70;;;;;;;24.34;49.27;94617.84;5025880;28;20041;-83
2023/08/02 05:37:54;;;;;;;20.27;11.02;;;;;;;24.60;49.50;94674.63;5024978;28;20063;-83
2023/08/02 05:40:20;;;;;;;21.63;10.18;;;;;;;24.88;48.97;94695.75;5028755;28;20041;-84
2023/08/02 05:42:45;;;;;;;12.88;9.60;;;;;;;25.01;48.85;94712.56;5025509;28;20026;-84
2023/08/02 05:45:11;;;;;;;15.82;9.57;;;;;;;24.87;48.59;94707.75;5015043;28;20574;-84
2023/08/02 05:47:36;;;;;;;15.30;8.90;;;;;;;23.93;49.18;94571.03;5013917;28;20547;-83
2023/08/02 05:50:03;;;;;;;20.35;10.10;;;;;;;24.60;49.00;94677.31;5017469;28;20476;-83
2023/08/02 05:52:28;;;;;;;20.88;10.02;;;;;;;24.77;48.99;94703.03;5023377;28;20038;-84
2023/08/02 05:54:54;;;;;;;17.98;10.02;;;;;;;24.92;48.90;94729.16;5009040;28;20040;-84
2023/08/02 05:57:19;;;;;;;18.50;9.73;;;;;;;23.92;48.64;94583.00;5004994;28;20104;-83
2023/08/02 05:59:45;;;;;;;21.85;9.50;;;;;;;24.50;49.06;94693.47;5018186;28;20041;-83
2023/08/02 06:02:10;;;;;;;21.83;10.43;;;;;;;24.40;49.13;94667.88;5007211;28;20211;-83
2023/08/02 06:04:38;;;;;;;19.55;10.32;;;;;;;24.66;49.28;94731.19;5008111;28;20098;-85
2023/08/02 06:07:03;;;;;;;27.00;10.98;;;;;;;24.01;49.63;94662.03;5012300;28;20038;-85
2023/08/02 06:09:29;;;;;;;23.73;10.35;;;;;;;24.47;49.55;94730.25;5018897;28;20026;-86
2023/08/02 06:11:55;;;;;;;31.83;10.05;;;;;;;24.06;50.02;94648.13;5032407;28;20104;-85
2023/08/02 06:14:20;;;;;;;24.60;9.93;;;;;;;24.53;50.17;94734.19;5005422;28;20034;-86
2023/08/02 06:16:46;;;;;;;15.20;10.00;;;;;;;22.89;50.34;94492.53;5022267;28;20397;-86
2023/08/02 06:19:11;;;;;;;17.42;10.43;;;;;;;24.60;50.03;94742.41;5040817;28;20361;-87
2023/08/02 06:21:37;;;;;;;21.00;10.63;;;;;;;23.94;49.88;94663.88;5019246;28;20176;-86
2023/08/02 06:24:02;;;;;;;21.33;10.82;;;;;;;23.63;49.32;94617.13;5036786;28;20037;-85
2023/08/02 06:26:28;;;;;;;15.52;9.93;;;;;;;24.37;49.41;94714.66;5030130;28;20038;-86
2023/08/02 06:28:54;;;;;;;14.55;9.80;;;;;;;24.77;48.99;94734.78;5014958;28;20045;-85
2023/08/02 06:31:20;;;;;;;17.92;10.48;;;;;;;24.72;48.93;94695.22;5009566;28;20038;-86
2023/08/02 06:33:46;;;;;;;22.88;10.85;;;;;;;24.38;48.57;94662.03;5019566;28;20029;-86
2023/08/02 06:36:12;;;;;;;16.83;10.15;;;;;;;24.42;48.55;94656.63;5017134;28;20040;-86
2023/08/02 06:38:37;;;;;;;18.50;10.38;;;;;;;24.52;48.67;94678.41;5013281;28;20125;-86
2023/08/02 06:41:03;;;;;;;17.73;10.93;;;;;;;24.52;48.62;94680.34;5026253;28;20037;-86
2023/08/02 06:43:29;;;;;;;17.75;10.70;;;;;;;24.83;48.20;94695.31;5003347;28;20045;-85
2023/08/02 06:45:54;;;;;;;16.23;10.60;;;;;;;24.92;48.38;94707.47;5018917;28;20042;-86
2023/08/02 06:48:24;;;;;;;20.90;10.52;;;;;;;25.21;48.02;94716.56;5033536;28;20037;-85
2023/08/02 06:50:50;;;;;;;19.65;10.35;;;;;;;25.27;48.14;94717.00;5000694;28;20061;-85
2023/08/02 06:53:15;;;;;;;20.60;10.45;;;;;;;25.01;48.31;94707.13;5024647;28;20046;-87
2023/08/02 06:55:41;;;;;;;19.35;10.55;;;;;;;25.12;47.72;94683.56;5012229;28;20164;-85
2023/08/02 06:58:06;;;;;;;18.08;11.18;;;;;;;25.34;48.01;94701.53;5002548;28;20030;-85
2023/08/02 07:00:34;;;;;;;19.98;11.43;;;;;;;25.62;47.86;94714.53;5026475;28;20133;-85
2023/08/02 07:03:01;;;;;;;19.40;10.95;;;;;;;25.52;47.84;94687.28;5016386;28;20206;-86
2023/08/02 07:05:28;;;;;;;17.77;11.40;;;;;;;25.59;47.77;94731.56;5008877;28;20030;-86
2023/08/02 07:07:58;;;;;;;15.70;10.77;;;;;;;25.71;47.66;94727.75;5003917;28;20365;-86
2023/08/02 07:10:25;;;;;;;17.50;9.77;;;;;;;25.43;47.37;94652.34;5012507;28;20030;-86
2023/08/02 07:12:51;;;;;;;15.13;10.90;;;;;;;25.23;47.61;94629.38;5002592;28;20078;-86
2023/08/02 07:15:17;;;;;;;18.88;10.52;;;;;;;25.16;47.78;94635.53;5020881;28;20146;-86
2023/08/02 07:17:44;;;;;;;16.42;10.15;;;;;;;25.28;47.42;94648.00;5005022;28;20478;-85
2023/08/02 07:20:11;;;;;;;16.80;10.35;;;;;;;25.48;47.20;94683.78;5012557;28;20041;-86
2023/08/02 07:22:37;;;;;;;19.10;10.73;;;;;;;25.88;46.92;94726.28;5020100;28;20040;-85
2023/08/02 07:25:02;;;;;;;20.63;12.10;;;;;;;25.74;47.02;94683.53;5016661;28;20038;-86
2023/08/02 07:27:28;;;;;;;15.38;10.88;;;;;;;25.62;47.16;94662.94;5033124;28;20037;-86
2023/08/02 07:29:56;;;;;;;16.33;10.98;;;;;;;25.71;47.28;94679.63;5037410;28;20061;-85
2023/08/02 07:32:21;;;;;;;17.52;10.82;;;;;;;25.52;46.78;94650.06;5018986;28;20031;-85
2023/08/02 07:34:47;;;;;;;14.52;10.60;;;;;;;25.94;47.04;94724.78;5007797;28;20087;-86
2023/08/02 07:37:12;;;;;;;19.38;10.15;;;;;;;24.85;47.04;94544.66;5032272;28;20040;-85
2023/08/02 07:39:39;;;;;;;14.27;10.43;;;;;;;25.58;46.97;94636.88;5030178;28;20048;-85
2023/08/02 07:42:05;;;;;;;21.95;11.35;;;;;;;26.01;47.25;94712.00;5017640;28;20029;-86
2023/08/02 07:44:30;;;;;;;20.48;10.70;;;;;;;26.00;47.00;94734.09;5015608;28;20128;-85
2023/08/02 07:46:56;;;;;;;18.98;11.20;;;;;;;25.70;47.07;94682.75;5021674;28;20041;-86
2023/08/02 07:49:21;;;;;;;16.23;10.73;;;;;;;26.07;46.55;94726.75;5030784;28;20042;-85
2023/08/02 07:51:46;;;;;;;18.50;10.77;;;;;;;26.18;46.89;94726.78;5023162;28;20033;-85
2023/08/02 07:54:12;;;;;;;15.52;11.27;;;;;;;26.01;46.94;94719.38;5027612;28;20144;-85
2023/08/02 07:56:37;;;;;;;17.75;11.32;;;;;;;25.87;46.72;94690.19;5033066;28;20038;-85
2023/08/02 07:59:03;;;;;;;17.65;11.27;;;;;;;25.83;46.99;94692.13;5019307;28;20018;-85
2023/08/02 08:01:29;;;;;;;19.13;11.95;;;;;;;26.16;46.84;94725.63;5001969;28;20038;-87
2023/08/02 08:03:54;;;;;;;21.67;10.70;;;;;;;25.87;47.07;94683.97;5024865;28;20064;-86
2023/08/02 08:06:20;;;;;;;15.50;9.85;;;;;;;25.88;46.80;94682.81;5021021;28;20040;-86
2023/08/02 08:08:48;;;;;;;12.57;9.55;;;;;;;26.07;46.83;94712.41;5027689;28;20568;-87
2023/08/02 08:11:13;;;;;;;12.77;9.27;;;;;;;25.66;47.42;94671.09;5016150;28;20069;-86
2023/08/02 08:13:39;;;;;;;16.95;9.13;;;;;;;25.63;46.79;94661.00;5005347;28;20033;-85
2023/08/02 08:16:04;;;;;;;12.80;8.18;;;;;;;25.42;45.32;94612.00;5022867;28;20031;-87
2023/08/02 08:18:31;;;;;;;8.40;5.63;;;;;;;26.15;43.41;94713.97;5004575;28;20018;-86
2023/08/02 08:20:57;;;;;;;11.10;6.63;;;;;;;26.17;44.01;94711.63;5022645;28;20095;-86
2023/08/02 08:23:23;;;;;;;17.33;8.85;;;;;;;26.32;45.00;94717.94;5027712;28;20109;-90
2023/08/02 08:25:48;;;;;;;10.18;6.75;;;;;;;26.05;43.30;94673.94;5011610;28;20066;-89
2023/08/02 08:28:14;;;;;;;8.02;5.63;;;;;;;26.32;41.99;94693.47;5006796;28;20049;-89
2023/08/02 08:30:39;;;;;;;10.27;7.10;;;;;;;26.35;42.99;94695.41;5016896;28;20038;-90
2023/08/02 08:33:05;;;;;;;8.55;5.57;;;;;;;26.43;41.22;94678.72;5024908;28;20057;-87
2023/08/02 08:35:34;;;;;;;11.38;7.20;;;;;;;26.73;42.84;94718.38;5023085;28;20029;-91
2023/08/02 08:37:59;;;;;;;9.57;7.20;;;;;;;26.76;43.65;94721.13;5009569;28;20022;-91
2023/08/02 08:40:25;;;;;;;9.38;7.45;;;;;;;26.63;43.61;94689.22;5024468;28;20021;-90
2023/08/02 08:42:52;;;;;;;14.15;8.02;;;;;;;26.46;43.66;94663.59;5030406;28;20478;-91
2023/08/02 08:45:19;;;;;;;10.93;8.30;;;;;;;26.58;44.18;94670.56;5019186;28;20087;-91
2023/08/02 08:47:45;;;;;;;12.48;8.85;;;;;;;26.94;44.37;94710.25;5017245;28;20119;-90
2023/08/02 08:50:11;;;;;;;16.33;8.02;;;;;;;26.80;43.49;94667.47;5015025;28;20073;-91
2023/08/02 08:52:39;;;;;;;10.10;7.80;;;;;;;27.03;43.43;94701.69;5012028;28;20029;-90
2023/08/02 08:55:08;;;;;;;9.70;7.78;;;;;;;27.10;43.36;94709.88;5006612;28;20390;-91
2023/08/02 08:57:35;;;;;;;10.80;7.50;;;;;;;27.19;43.17;94707.53;5020491;28;20064;-91
2023/08/02 09:00:03;;;;;;;15.35;8.15;;;;;;;26.99;43.00;94663.63;5026545;28;20038;-91
2023/08/02 09:02:32;;;;;;;18.63;9.70;;;;;;;27.18;43.64;94656.97;5026704;28;20041;-89
2023/08/02 09:04:59;;;;;;;12.38;8.73;;;;;;;27.46;43.79;94702.44;5018880;28;20033;-91
2023/08/02 09:07:25;;;;;;;11.13;8.32;;;;;;;27.15;43.23;94655.06;5027948;28;20041;-90
2023/08/02 09:09:51;;;;;;;18.40;9.60;;;;;;;27.62;43.57;94697.34;5035370;28;20072;-91
2023/08/02 09:12:16;;;;;;;14.43;8.40;;;;;;;27.18;43.19;94652.31;5020892;28;20121;-91
2023/08/02 09:15:02;;;;;;;13.00;8.18;;;;;;;27.64;42.68;94697.75;5001145;28;20097;-91
2023/08/02 09:17:28;;;;;;;13.38;8.68;;;;;;;27.71;42.46;94686.03;5029885;28;20034;-92
2023/08/02 09:20:07;;;;;;;15.95;7.88;;;;;;;27.74;42.28;94682.53;5007673;28;20068;-92
2023/08/02 09:22:33;;;;;;;14.48;8.20;;;;;;;27.50;41.72;94659.63;5019427;28;20076;-91
2023/08/02 09:24:58;;;;;;;16.27;8.75;;;;;;;27.60;42.07;94624.22;5023605;28;20124;-91
2023/08/02 09:27:29;;;;;;;15.57;8.07;;;;;;;28.12;41.01;94697.94;5023166;28;20041;-89
2023/08/02 09:29:55;;;;;;;18.02;7.25;;;;;;;27.75;40.26;94659.56;5005393;28;20060;-90
2023/08/02 09:32:22;;;;;;;14.48;7.70;;;;;;;28.13;40.34;94694.06;5013327;28;20125;-91
2023/08/02 09:34:54;;;;;;;11.38;7.03;;;;;;;27.50;39.54;94600.50;5015903;28;20049;-90
2023/08/02 09:37:33;;;;;;;18.23;7.50;;;;;;;28.00;38.88;94655.56;5033181;28;20051;-90
2023/08/02 09:39:59;;;;;;;20.02;6.78;;;;;;;28.23;38.76;94695.97;5027922;28;20108;-91
2023/08/02 09:42:26;;;;;;;9.07;6.05;;;;;;;28.39;37.87;94687.31;5012791;28;20057;-91
2023/08/02 09:45:01;;;;;;;18.95;6.90;;;;;;;28.29;38.02;94666.34;5012092;28;20027;-90
2023/08/02 09:47:27;;;;;;;9.32;6.70;;;;;;;27.97;38.31;94601.84;5020433;28;20033;-92
2023/08/02 09:50:08;;;;;;;12.73;7.13;;;;;;;28.55;38.01;94678.63;5027443;28;20037;-91
2023/08/02 09:52:35;;;;;;;17.45;7.07;;;;;;;28.72;37.65;94678.50;5013903;28;20434;-90
2023/08/02 09:55:01;;;;;;;7.80;5.60;;;;;;;28.77;36.87;94664.47;5012613;28;20073;-92
2023/08/02 09:57:28;;;;;;;11.73;5.72;;;;;;;29.01;36.18;94651.78;5027425;28;20036;-90
2023/08/02 09:59:55;;;;;;;11.68;6.28;;;;;;;29.04;36.11;94612.00;5033266;28;20311;-90
2023/08/02 10:02:26;;;;;;;9.10;5.68;;;;;;;29.33;34.75;94659.69;5031067;28;20064;-90
2023/08/02 10:04:57;;;;;;;5.75;5.15;;;;;;;29.74;34.14;94653.41;5027640;28;20386;-90
2023/08/02 10:07:36;;;;;;;7.55;5.50;;;;;;;30.43;33.19;94688.47;5016058;28;20064;-90
2023/08/02 10:10:12;;;;;;;11.10;5.68;;;;;;;30.57;32.83;94693.78;5025988;28;20036;-90
2023/08/02 10:12:38;;;;;;;7.82;4.72;;;;;;;30.56;32.63;94680.50;5017455;28;20034;-90
2023/08/02 10:15:04;;;;;;;11.27;4.70;;;;;;;30.42;32.20;94631.44;5016205;28;20133;-90
2023/08/02 10:17:31;;;;;;;14.25;5.25;;;;;;;30.61;31.58;94683.53;5019591;28;20037;-89
2023/08/02 10:20:03;;;;;;;10.43;5.10;;;;;;;30.93;31.81;94682.28;5013983;28;20125;-89
2023/08/02 10:22:30;;;;;;;9.52;5.50;;;;;;;31.31;31.45;94667.19;5003865;28;20045;-89
2023/08/02 10:24:56;;;;;;;12.90;5.30;;;;;;;31.60;31.03;94653.72;5002692;28;20034;-90
2023/08/02 10:27:23;;;;;;;7.05;5.00;;;;;;;31.86;30.04;94638.34;5000424;28;20128;-91
2023/08/02 10:29:49;;;;;;;11.82;5.20;;;;;;;32.20;29.81;94643.53;5024676;28;20231;-90
2023/08/02 10:32:18;;;;;;;7.43;5.05;;;;;;;32.57;29.01;94667.03;5025889;28;20060;-89
2023/08/02 10:34:51;;;;;;;8.20;5.15;;;;;;;32.83;28.28;94682.50;5022371;28;20053;-90
2023/08/02 10:37:19;;;;;;;9.77;4.88;;;;;;;32.65;29.32;94670.38;5009960;28;20042;-90
2023/08/02 10:39:47;;;;;;;9.55;5.30;;;;;;;33.05;28.46;94662.75;5012057;28;20333;-90
2023/08/02 10:42:13;;;;;;;7.05;4.63;;;;;;;33.64;27.93;94659.69;5003285;28;20046;-90
2023/08/02 10:44:54;;;;;;;8.73;4.57;;;;;;;33.82;27.03;94681.22;5016212;28;20041;-91
2023/08/02 10:47:30;;;;;;;7.00;4.30;;;;;;;33.99;26.35;94664.22;5026463;28;20044;-90
2023/08/02 10:49:58;;;;;;;6.53;4.72;;;;;;;34.47;26.30;94660.50;5025412;28;20110;-91
2023/08/02 10:52:35;;;;;;;8.25;4.25;;;;;;;34.39;26.05;94639.13;5014803;28;20061;-89
2023/08/02 10:55:07;;;;;;;6.07;4.25;;;;;;;34.36;25.80;94629.75;5021188;28;20052;-88
2023/08/02 10:57:32;;;;;;;9.93;4.35;;;;;;;33.91;25.58;94572.13;5026535;28;20038;-92
2023/08/02 10:59:58;;;;;;;8.73;4.32;;;;;;;34.59;25.95;94669.94;5021285;28;20030;-90
2023/08/02 11:02:25;;;;;;;9.07;4.25;;;;;;;34.13;26.03;94591.50;5022017;28;20042;-92
2023/08/02 11:04:51;;;;;;;6.18;4.53;;;;;;;34.94;25.64;94668.06;5018825;28;20033;-91
2023/08/02 11:07:18;;;;;;;5.20;4.30;;;;;;;35.25;25.47;94659.25;5031635;28;20037;-89
2023/08/02 11:09:55;;;;;;;8.32;4.63;;;;;;;34.92;24.85;94598.91;5022261;28;20037;-92
2023/08/02 11:12:22;;;;;;;8.32;4.47;;;;;;;35.75;24.49;94666.59;5042085;28;20040;-89
2023/08/02 11:14:52;;;;;;;9.40;4.10;;;;;;;35.37;24.71;94639.91;5043882;28;20025;-88
2023/08/02 11:17:22;;;;;;;5.53;4.63;;;;;;;34.93;25.00;94628.00;5037048;28;20042;-89
2023/08/02 11:19:49;;;;;;;11.80;4.60;;;;;;;34.58;25.38;94607.81;5039723;28;20260;-90
2023/08/02 11:22:15;;;;;;;8.70;4.32;;;;;;;34.53;26.25;94655.19;5068889;28;20093;-90
2023/08/02 11:24:44;;;;;;;5.20;4.03;;;;;;;34.10;26.37;94630.91;5056493;22;20049;-78